createdAt,value
2019-03-09T00:03:10.994Z,4.03
2019-03-09T00:08:34.997Z,4.67
2019-03-09T00:13:59.439Z,5.00
2019-03-09T00:19:23.653Z,4.90
2019-03-09T00:24:56.020Z,5.37
2019-03-09T00:30:27.632Z,5.80
2019-03-09T00:35:52.416Z,5.70
2019-03-09T00:41:16.263Z,5.83
2019-03-09T00:46:40.587Z,6.27
2019-03-09T00:52:05.390Z,6.30
2019-03-09T00:57:30.208Z,6.17
2019-03-09T01:02:54.272Z,6.43
2019-03-09T01:08:18.807Z,6.27
2019-03-09T01:13:43.136Z,6.37
2019-03-09T01:19:08.953Z,6.70
2019-03-09T01:24:33.429Z,6.87
2019-03-09T01:29:58.170Z,8.40
2019-03-09T01:35:22.960Z,7.83
2019-03-09T01:40:47.032Z,7.10
2019-03-09T01:46:11.547Z,7.40
2019-03-09T01:51:35.523Z,7.17
2019-03-09T01:57:01.361Z,7.37
2019-03-09T02:02:25.453Z,7.43
2019-03-09T02:07:49.796Z,6.90
2019-03-09T02:13:15.011Z,7.17
2019-03-09T02:18:39.773Z,6.80
2019-03-09T02:24:03.785Z,7.40
2019-03-09T02:29:27.720Z,7.30
2019-03-09T02:34:51.723Z,7.30
2019-03-09T02:40:23.231Z,7.03
2019-03-09T02:45:47.318Z,7.20
2019-03-09T02:51:11.539Z,6.43
2019-03-09T02:56:36.052Z,5.90
2019-03-09T03:02:10.810Z,7.00
2019-03-09T03:07:34.222Z,5.90
2019-03-09T03:12:58.906Z,9.90
2019-03-09T03:18:23.515Z,6.93
2019-03-09T03:23:47.736Z,6.13
2019-03-09T03:29:12.650Z,5.40
2019-03-09T03:34:37.088Z,6.10
2019-03-09T03:40:00.933Z,7.13
2019-03-09T03:45:25.543Z,5.63
2019-03-09T03:50:49.413Z,5.67
2019-03-09T03:56:13.269Z,5.53
2019-03-09T04:01:38.067Z,6.40
2019-03-09T04:07:02.006Z,5.87
2019-03-09T04:12:26.765Z,6.93
2019-03-09T04:17:51.164Z,6.93
2019-03-09T04:23:15.232Z,5.83
2019-03-09T04:28:39.729Z,6.63
2019-03-09T04:34:03.777Z,6.27
2019-03-09T04:39:28.739Z,5.57
2019-03-09T04:44:53.336Z,5.30
2019-03-09T04:50:17.969Z,5.10
2019-03-09T04:55:42.833Z,5.30
2019-03-09T05:01:06.638Z,5.63
2019-03-09T05:06:31.502Z,4.87
2019-03-09T05:11:56.082Z,5.43
2019-03-09T05:17:20.872Z,5.30
2019-03-09T05:22:44.632Z,5.00
2019-03-09T05:28:08.696Z,6.10
2019-03-09T05:33:33.169Z,4.87
2019-03-09T05:38:58.648Z,5.00
2019-03-09T05:44:23.358Z,4.50
2019-03-09T05:49:48.095Z,5.20
2019-03-09T05:55:17.086Z,6.33
2019-03-09T06:00:41.901Z,5.53
2019-03-09T06:06:11.779Z,5.30
2019-03-09T06:11:35.707Z,5.83
2019-03-09T06:16:59.802Z,4.73
2019-03-09T06:22:23.713Z,5.00
2019-03-09T06:27:47.401Z,5.03
2019-03-09T06:33:25.654Z,5.27
2019-03-09T06:39:10.989Z,5.73
2019-03-09T06:44:34.992Z,4.70
2019-03-09T06:49:59.346Z,4.10
2019-03-09T06:55:23.818Z,4.63
2019-03-09T07:00:48.661Z,5.17
2019-03-09T07:06:12.482Z,3.60
2019-03-09T07:11:36.659Z,4.90
2019-03-09T07:17:01.162Z,4.53
2019-03-09T07:22:26.221Z,3.40
2019-03-09T07:28:01.042Z,4.57
2019-03-09T07:33:24.950Z,3.47
2019-03-09T07:38:49.983Z,4.47
2019-03-09T07:44:14.412Z,3.83
2019-03-09T07:49:39.063Z,3.70
2019-03-09T07:55:05.553Z,2.70
2019-03-09T08:00:29.766Z,3.30
2019-03-09T08:05:53.505Z,2.50
2019-03-09T08:11:18.444Z,2.40
2019-03-09T08:16:43.129Z,2.47
2019-03-09T08:22:07.463Z,2.40
2019-03-09T08:27:31.638Z,2.30
2019-03-09T08:32:56.329Z,2.03
2019-03-09T08:38:21.108Z,1.87
2019-03-09T08:43:45.047Z,2.20
2019-03-09T08:49:09.827Z,1.60
2019-03-09T08:54:33.507Z,1.80
2019-03-09T08:59:58.042Z,1.87
2019-03-09T09:05:21.855Z,2.00
2019-03-09T09:10:45.714Z,1.77
2019-03-09T09:16:10.098Z,2.07
2019-03-09T09:21:34.417Z,1.57
2019-03-09T09:26:59.128Z,1.40
2019-03-09T09:32:24.796Z,1.70
2019-03-09T09:37:49.652Z,2.00
2019-03-09T09:43:14.908Z,2.47
2019-03-09T09:48:39.053Z,1.87
2019-03-09T09:54:04.059Z,1.90
2019-03-09T09:59:28.572Z,3.33
2019-03-09T10:04:52.935Z,1.90
2019-03-09T10:10:17.635Z,2.10
2019-03-09T10:15:41.930Z,1.97
2019-03-09T10:21:06.078Z,2.50
2019-03-09T10:26:31.099Z,2.40
2019-03-09T10:31:54.675Z,1.80
2019-03-09T10:37:18.903Z,2.20
2019-03-09T10:42:43.180Z,2.40
2019-03-09T10:48:07.833Z,2.40
2019-03-09T10:53:32.501Z,2.70
2019-03-09T10:58:56.710Z,3.73
2019-03-09T11:04:27.460Z,2.10
2019-03-09T11:09:47.053Z,2.50
2019-03-09T11:15:11.905Z,3.17
2019-03-09T11:20:36.882Z,2.53
2019-03-09T11:26:01.468Z,2.77
2019-03-09T11:31:25.715Z,2.67
2019-03-09T11:36:50.247Z,2.63
2019-03-09T11:42:15.056Z,3.10
2019-03-09T11:47:38.932Z,3.57
2019-03-09T11:53:03.350Z,2.30
2019-03-09T11:58:27.049Z,2.13
2019-03-09T12:03:51.743Z,2.00
2019-03-09T12:09:16.486Z,2.87
2019-03-09T12:14:41.005Z,3.17
2019-03-09T12:20:05.757Z,2.70
2019-03-09T12:25:30.166Z,2.77
2019-03-09T12:30:54.996Z,2.93
2019-03-09T12:36:19.703Z,2.83
2019-03-09T12:41:44.571Z,3.07
2019-03-09T12:47:08.422Z,2.53
2019-03-09T12:52:33.073Z,2.93
2019-03-09T12:57:57.097Z,2.63
2019-03-09T13:03:20.855Z,3.00
2019-03-09T13:08:44.803Z,2.77
2019-03-09T13:14:09.671Z,2.60
2019-03-09T13:19:33.497Z,2.62
2019-03-09T13:24:57.797Z,2.40
2019-03-09T13:30:22.832Z,3.17
2019-03-09T13:35:48.163Z,2.47
2019-03-09T13:41:12.191Z,2.80
2019-03-09T13:46:36.965Z,2.60
2019-03-09T13:52:01.697Z,3.20
2019-03-09T13:57:26.212Z,3.00
2019-03-09T14:02:49.868Z,4.10
2019-03-09T14:08:14.683Z,4.53
2019-03-09T14:13:39.587Z,3.87
2019-03-09T14:19:03.548Z,4.17
2019-03-09T14:24:28.711Z,4.63
2019-03-09T14:29:52.645Z,5.60
2019-03-09T14:35:17.111Z,5.08
2019-03-09T14:40:41.878Z,4.40
2019-03-09T14:46:05.568Z,4.60
2019-03-09T14:51:31.279Z,4.60
2019-03-09T14:56:55.893Z,4.20
2019-03-09T15:02:20.419Z,3.43
2019-03-09T15:07:45.217Z,3.17
2019-03-09T15:13:08.869Z,3.50
2019-03-09T15:18:33.291Z,4.10
2019-03-09T15:23:57.752Z,3.87
2019-03-09T15:29:22.445Z,6.83
2019-03-09T15:34:46.322Z,5.93
2019-03-09T15:40:10.166Z,7.10
2019-03-09T15:45:33.853Z,7.97
2019-03-09T15:50:58.387Z,9.73
2019-03-09T15:56:22.794Z,9.67
2019-03-09T16:01:47.249Z,10.37
2019-03-09T16:07:11.724Z,8.77
2019-03-09T16:12:35.388Z,6.27
2019-03-09T16:18:00.031Z,2.47
2019-03-09T16:23:24.711Z,2.43
2019-03-09T16:28:48.538Z,2.10
2019-03-09T16:34:13.372Z,2.90
2019-03-09T16:39:39.800Z,3.30
2019-03-09T16:45:05.193Z,3.30
2019-03-09T16:50:29.256Z,3.50
2019-03-09T16:55:53.670Z,2.63
2019-03-09T17:01:17.362Z,3.03
2019-03-09T17:06:41.637Z,3.20
2019-03-09T17:12:06.091Z,3.60
2019-03-09T17:17:30.573Z,2.80
2019-03-09T17:22:54.623Z,2.60
2019-03-09T17:28:18.404Z,3.10
2019-03-09T17:33:42.970Z,2.70
2019-03-09T17:39:09.737Z,3.50
2019-03-09T17:44:36.096Z,3.63
2019-03-09T17:50:00.736Z,2.87
2019-03-09T17:55:25.380Z,3.60
2019-03-09T18:00:49.951Z,3.63
2019-03-09T18:06:14.679Z,3.80
2019-03-09T18:11:38.804Z,4.13
2019-03-09T18:17:02.369Z,3.80
2019-03-09T18:22:26.846Z,4.20
2019-03-09T18:27:51.556Z,5.97
2019-03-09T18:33:16.305Z,4.87
2019-03-09T18:38:40.696Z,4.47
2019-03-09T18:44:05.134Z,5.33
2019-03-09T18:49:28.914Z,4.17
2019-03-09T18:54:53.985Z,3.83
2019-03-09T19:00:19.097Z,4.93
2019-03-09T19:05:43.655Z,4.73
2019-03-09T19:11:08.418Z,3.87
2019-03-09T19:16:32.449Z,3.90
2019-03-09T19:21:57.716Z,4.17
2019-03-09T19:27:22.519Z,4.23
2019-03-09T19:32:47.169Z,4.20
2019-03-09T19:38:11.464Z,4.90
2019-03-09T19:43:35.947Z,4.67
2019-03-09T19:49:01.770Z,5.60
2019-03-09T19:54:26.267Z,6.17
2019-03-09T19:59:50.876Z,6.00
2019-03-09T20:05:15.421Z,5.40
2019-03-09T20:10:40.054Z,6.00
2019-03-09T20:16:04.963Z,5.00
2019-03-09T20:21:29.391Z,4.07
2019-03-09T20:26:53.037Z,3.60
2019-03-09T20:32:17.616Z,3.57
2019-03-09T20:37:42.283Z,2.30
2019-03-09T20:43:06.566Z,2.47
2019-03-09T20:48:31.461Z,3.13
2019-03-09T20:53:55.783Z,2.10
2019-03-09T20:59:20.353Z,1.80
2019-03-09T21:04:45.325Z,1.83
2019-03-09T21:10:11.375Z,1.53
2019-03-09T21:15:35.809Z,1.57
2019-03-09T21:21:00.354Z,1.97
2019-03-09T21:26:25.551Z,1.90
2019-03-09T21:31:50.889Z,2.63
2019-03-09T21:37:14.821Z,2.30
2019-03-09T21:42:39.440Z,2.93
2019-03-09T21:48:04.157Z,2.97
2019-03-09T21:53:28.164Z,2.33
2019-03-09T21:58:52.803Z,2.07
2019-03-09T22:04:17.562Z,3.03
2019-03-09T22:09:42.683Z,2.30
2019-03-09T22:15:07.799Z,2.43
2019-03-09T22:20:31.535Z,2.07
2019-03-09T22:25:55.180Z,2.27
2019-03-09T22:31:19.599Z,2.50
2019-03-09T22:36:44.473Z,2.80
2019-03-09T22:42:08.766Z,2.27
2019-03-09T22:47:32.456Z,2.40
2019-03-09T22:52:56.735Z,2.07
2019-03-09T22:58:21.449Z,2.60
2019-03-09T23:03:46.245Z,2.47
2019-03-09T23:09:09.876Z,2.77
2019-03-09T23:14:34.141Z,2.67
2019-03-09T23:19:58.749Z,2.47
2019-03-09T23:25:23.550Z,2.40
2019-03-09T23:30:47.406Z,2.57
2019-03-09T23:36:11.852Z,2.80
2019-03-09T23:41:36.967Z,2.70
2019-03-09T23:47:01.869Z,3.20
2019-03-09T23:52:26.619Z,2.17
2019-03-09T23:57:51.238Z,2.87
